Terminal Aerodrome Forecast
Issued by NWS Charleston, WV

Current Version | Previous Version | Graphics & Text | Print | Product List | Glossary On
Versions: 1 2 3 4 5 6 7 8 9 10 11 12 13 14 15 16 17 18 19 20 21 22 23 24 25 26
000
FTUS41 KRLX 132300
TAFPKB
TAF
KPKB 132336Z 1400/1424 32004KT P6SM FEW050
     FM140500 00000KT 3SM BR FEW025
     FM140800 00000KT 1SM BR SCT001
     FM140900 00000KT 1/4SM FG VV001
     FM141300 00000KT 3SM BR SCT001
     FM141400 00000KT P6SM FEW250
     FM141700 00000KT P6SM FEW035=

USA.gov is the U.S. government's official web portal to all federal, state and local government web resources and services.